Time;durP1;ratioP1;P1;durP2;ratioP2;P2;SDS_P1;SDS_P2;PMS_P1;PMS_P2;Temp;Humidity;BMP_temperature;BMP_pressure;BME280_temperature;BME280_humidity;BME280_pressure;Samples;Min_cycle;Max_cycle;Signal;HPM_P1;HPM_P2
2021/07/14 00:01:05;;;;;;;14.85;13.45;;;;;;;23.33;100.00;100629.58;1733525;82;20944;-41
2021/07/14 00:03:32;;;;;;;9.45;8.55;;;;;;;23.33;100.00;100632.30;1736439;80;20933;-40
2021/07/14 00:06:00;;;;;;;8.53;7.72;;;;;;;23.30;100.00;100629.92;1733221;80;21047;-42
2021/07/14 00:08:26;;;;;;;7.15;6.45;;;;;;;23.29;100.00;100629.59;1735902;80;20932;-42
2021/07/14 00:10:54;;;;;;;7.87;7.17;;;;;;;23.26;100.00;100632.14;1734704;80;21756;-43
2021/07/14 00:13:27;;;;;;;7.42;6.50;;;;;;;23.23;100.00;100633.81;1728869;80;20904;-41
2021/07/14 00:24:03;;;;;;;7.80;7.00;;;;;;;23.08;100.00;100625.98;1731687;82;21427;-42
2021/07/14 00:26:29;;;;;;;7.60;6.75;;;;;;;23.03;100.00;100623.80;1733790;80;20983;-41
2021/07/14 00:28:56;;;;;;;7.47;6.78;;;;;;;23.00;100.00;100625.98;1736225;80;20912;-39
2021/07/14 00:31:22;;;;;;;8.50;7.70;;;;;;;22.97;100.00;100623.56;1738941;80;21407;-38
2021/07/14 00:33:49;;;;;;;8.83;7.47;;;;;;;22.94;100.00;100630.19;1731887;82;20940;-39
2021/07/14 00:36:17;;;;;;;6.83;6.22;;;;;;;22.90;100.00;100626.94;1733702;80;20999;-40
2021/07/14 00:38:45;;;;;;;8.23;7.42;;;;;;;22.88;100.00;100633.55;1724383;81;20944;-39
2021/07/14 00:41:12;;;;;;;8.03;7.30;;;;;;;22.85;100.00;100628.45;1717482;81;20964;-40
2021/07/14 00:43:39;;;;;;;8.73;7.35;;;;;;;22.83;100.00;100630.48;1717059;81;20948;-42
2021/07/14 00:46:25;;;;;;;8.00;7.30;;;;;;;22.82;100.00;100631.52;1724075;82;20913;-43
2021/07/14 00:48:56;;;;;;;8.35;7.65;;;;;;;22.79;100.00;100627.26;1725542;81;21008;-40
2021/07/14 00:51:23;;;;;;;7.35;6.70;;;;;;;22.78;100.00;100624.21;1728203;81;20957;-39
2021/07/14 00:53:50;;;;;;;10.35;7.53;;;;;;;22.76;100.00;100626.23;1720769;81;20980;-41
2021/07/14 00:56:17;;;;;;;8.60;7.70;;;;;;;22.75;100.00;100630.47;1726632;81;21036;-41
2021/07/14 00:58:44;;;;;;;8.35;7.55;;;;;;;22.73;100.00;100633.37;1724144;81;20937;-41
2021/07/14 01:01:10;;;;;;;8.70;6.55;;;;;;;22.72;100.00;100633.52;1725070;81;20925;-40
2021/07/14 01:03:40;;;;;;;7.30;6.60;;;;;;;22.69;100.00;100638.27;1724600;81;20968;-42
2021/07/14 01:06:11;;;;;;;7.15;6.53;;;;;;;22.68;100.00;100642.52;1720612;82;21039;-41
2021/07/14 01:08:50;;;;;;;7.53;6.83;;;;;;;22.67;100.00;100634.86;1723383;81;21416;-45
2021/07/14 01:11:19;;;;;;;7.37;6.67;;;;;;;22.65;100.00;100636.91;1722330;81;20956;-44
2021/07/14 01:14:21;;;;;;;6.90;6.25;;;;;;;22.64;100.00;100633.83;1721087;81;21369;-40
2021/07/14 01:16:44;;;;;;;7.80;7.10;;;;;;;22.63;100.00;100636.22;1717277;81;21369;-41
2021/07/14 01:19:38;;;;;;;8.03;7.28;;;;;;;22.60;100.00;100633.84;1670893;82;20937;-42
2021/07/14 01:22:19;;;;;;;9.18;7.72;;;;;;;22.55;100.00;100636.16;1725415;81;20929;-41
2021/07/14 01:24:54;;;;;;;8.20;7.40;;;;;;;22.51;100.00;100633.97;1710458;82;20976;-39
2021/07/14 01:27:20;;;;;;;9.55;8.18;;;;;;;22.49;100.00;100633.27;1722906;82;21021;-41
2021/07/14 01:29:53;;;;;;;7.95;7.25;;;;;;;22.46;100.00;100631.22;1723399;81;21479;-42
2021/07/14 01:32:22;;;;;;;7.85;6.95;;;;;;;22.46;100.00;100629.02;1663876;84;21494;-38
2021/07/14 01:34:59;;;;;;;8.53;7.33;;;;;;;22.43;100.00;100629.35;1661037;84;20952;-37
2021/07/14 01:37:26;;;;;;;7.72;6.95;;;;;;;22.41;100.00;100625.94;1725177;81;21012;-40
2021/07/14 01:39:55;;;;;;;8.00;7.20;;;;;;;22.40;100.00;100622.38;1716329;81;21284;-37
2021/07/14 01:42:24;;;;;;;8.40;6.75;;;;;;;22.39;100.00;100626.09;1715192;81;21495;-40
2021/07/14 01:44:52;;;;;;;9.33;7.15;;;;;;;22.39;100.00;100630.67;1721344;82;20932;-40
2021/07/14 01:47:20;;;;;;;8.75;6.85;;;;;;;22.38;100.00;100630.34;1718548;81;20937;-41
2021/07/14 01:49:46;;;;;;;7.37;6.65;;;;;;;22.37;100.00;100632.19;1726596;81;21471;-43
2021/07/14 01:52:17;;;;;;;9.10;7.45;;;;;;;22.35;100.00;100635.59;1723585;81;20933;-41
2021/07/14 01:54:44;;;;;;;8.70;7.87;;;;;;;22.35;100.00;100634.72;1708116;82;20952;-39
2021/07/14 01:57:11;;;;;;;8.63;7.83;;;;;;;22.34;100.00;100638.46;1723469;82;20968;-41
2021/07/14 01:59:40;;;;;;;7.92;6.87;;;;;;;22.35;100.00;100638.80;1725038;81;20921;-41
2021/07/14 02:02:07;;;;;;;8.05;7.35;;;;;;;22.35;100.00;100629.28;1726578;81;20992;-40
2021/07/14 02:04:34;;;;;;;9.30;8.40;;;;;;;22.34;100.00;100632.52;1721649;81;20940;-40
2021/07/14 02:07:17;;;;;;;7.60;6.90;;;;;;;22.32;100.00;100637.77;1720119;81;21068;-43
2021/07/14 02:09:45;;;;;;;7.72;7.03;;;;;;;22.32;100.00;100641.84;1724320;81;20948;-39
2021/07/14 02:12:21;;;;;;;8.18;7.37;;;;;;;22.28;100.00;100626.39;1726985;81;20961;-37
2021/07/14 02:14:51;;;;;;;9.25;7.78;;;;;;;22.25;100.00;100629.41;1722626;81;20949;-38
2021/07/14 02:17:21;;;;;;;7.60;6.75;;;;;;;22.23;100.00;100632.30;1726753;82;21000;-37
2021/07/14 02:20:08;;;;;;;8.73;7.47;;;;;;;22.23;100.00;100628.74;1721650;81;20964;-39
2021/07/14 02:22:34;;;;;;;8.55;7.55;;;;;;;22.22;100.00;100633.30;1716274;81;21862;-36
2021/07/14 02:25:01;;;;;;;8.55;7.75;;;;;;;;;;1719814;81;20909;-37
2021/07/14 02:27:29;;;;;;;7.25;6.55;;;;;;;22.22;100.00;100642.80;1726646;81;21604;-37
2021/07/14 02:29:56;;;;;;;8.65;7.83;;;;;;;22.18;100.00;100642.77;1719902;82;20920;-36
2021/07/14 02:32:22;;;;;;;8.95;8.00;;;;;;;22.15;100.00;100648.52;1719091;82;21064;-42
2021/07/14 02:34:53;;;;;;;8.60;7.80;;;;;;;22.12;100.00;100647.98;1716487;81;20943;-40
2021/07/14 02:37:37;;;;;;;7.28;6.67;;;;;;;22.13;100.00;100651.06;1719991;82;20941;-40
2021/07/14 02:40:05;;;;;;;6.83;6.15;;;;;;;22.14;100.00;100660.89;1726229;81;21024;-38
2021/07/14 02:42:42;;;;;;;7.03;6.42;;;;;;;22.15;100.00;100659.39;1710083;82;21318;-41
2021/07/14 02:45:16;;;;;;;7.15;6.45;;;;;;;22.17;100.00;100660.05;1726703;82;21024;-39
2021/07/14 02:47:43;;;;;;;8.78;7.25;;;;;;;22.19;100.00;100664.85;1715488;82;20975;-38
2021/07/14 02:50:16;;;;;;;6.72;6.15;;;;;;;22.20;100.00;100666.58;1720378;82;20956;-37
2021/07/14 02:52:52;;;;;;;7.92;7.22;;;;;;;22.22;100.00;100671.31;1720285;81;20928;-40
2021/07/14 02:55:22;;;;;;;7.45;6.75;;;;;;;22.21;100.00;100669.62;1722193;82;21423;-37
2021/07/14 02:57:52;;;;;;;8.40;7.17;;;;;;;22.22;100.00;100671.31;1726141;82;20984;-36
2021/07/14 03:00:18;;;;;;;7.78;7.08;;;;;;;22.24;100.00;100677.95;1719523;81;20937;-38
2021/07/14 03:02:46;;;;;;;7.12;6.53;;;;;;;22.23;100.00;100674.39;1727467;81;20992;-36
2021/07/14 03:05:13;;;;;;;7.90;7.10;;;;;;;22.24;100.00;100678.80;1720683;82;20923;-36
2021/07/14 03:07:39;;;;;;;9.55;7.25;;;;;;;22.26;100.00;100677.30;1721253;81;21044;-38
2021/07/14 03:10:07;;;;;;;8.20;7.42;;;;;;;22.27;100.00;100681.70;1686356;82;21000;-35
2021/07/14 03:12:34;;;;;;;9.95;9.08;;;;;;;22.31;100.00;100691.23;1722849;82;20961;-37
2021/07/14 03:15:05;;;;;;;8.48;7.67;;;;;;;22.32;100.00;100686.66;1721303;81;20929;-35
2021/07/14 03:17:32;;;;;;;8.60;7.70;;;;;;;22.33;100.00;100685.66;1725583;82;20953;-39
2021/07/14 03:20:03;;;;;;;9.90;8.70;;;;;;;22.32;100.00;100688.02;1717735;81;20932;-37
2021/07/14 03:22:30;;;;;;;9.95;9.05;;;;;;;22.33;100.00;100688.37;1725678;81;20972;-38
2021/07/14 03:24:57;;;;;;;9.68;8.18;;;;;;;22.34;100.00;100689.55;1726928;81;21302;-41
2021/07/14 03:27:23;;;;;;;8.85;8.10;;;;;;;22.36;100.00;100692.13;1723046;81;20964;-41
2021/07/14 03:29:51;;;;;;;8.55;7.75;;;;;;;22.38;100.00;100695.53;1721272;81;20945;-39
2021/07/14 03:32:18;;;;;;;9.53;8.63;;;;;;;22.41;100.00;100691.13;1714175;82;20972;-40
2021/07/14 03:34:45;;;;;;;9.28;7.80;;;;;;;22.44;100.00;100694.87;1721977;81;21423;-40
2021/07/14 08:05:35;;;;;;;5.72;4.90;;;;;;;27.38;100.00;100630.70;1703932;82;21132;-43
2021/07/14 08:08:30;;;;;;;6.55;5.37;;;;;;;27.46;100.00;100628.88;1711721;82;21013;-40
2021/07/14 08:11:25;;;;;;;5.65;5.12;;;;;;;27.50;100.00;100626.92;1716874;80;21074;-46
2021/07/14 08:14:19;;;;;;;5.45;4.95;;;;;;;27.54;100.00;100628.73;1723682;80;21120;-41
2021/07/14 08:17:13;;;;;;;5.78;4.85;;;;;;;27.61;100.00;100627.73;1717408;81;20972;-43
2021/07/14 08:20:07;;;;;;;5.92;5.17;;;;;;;27.66;100.00;100619.46;1727213;81;20987;-46
2021/07/14 08:23:01;;;;;;;5.53;4.62;;;;;;;27.71;100.00;100629.30;1715604;80;21081;-49
2021/07/14 10:05:46;;;;;;;13.38;6.78;;;;;;;29.50;92.07;100582.63;1782730;78;23056;-46
2021/07/14 10:08:22;;;;;;;9.45;6.70;;;;;;;29.50;86.43;100584.84;1754295;80;20967;-45
2021/07/14 10:10:51;;;;;;;12.58;7.60;;;;;;;29.56;85.44;100591.41;1755884;80;20928;-44
2021/07/14 14:23:14;;;;;;;5.72;4.83;;;;;;;31.31;84.69;100488.17;1769907;79;22994;-44
